sensor_id;sensor_type;location;lat;lon;timestamp;P1;P2;P0
32503;PMS5003;18953;45.930;13.640;2023-03-01T00:02:31;31;28;
32503;PMS5003;18953;45.930;13.640;2023-03-01T00:07:48;30;27;
32503;PMS5003;18953;45.930;13.640;2023-03-01T00:13:05;27;25;
32503;PMS5003;18953;45.930;13.640;2023-03-01T00:18:22;23;22;
32503;PMS5003;18953;45.930;13.640;2023-03-01T00:23:38;23;23;
32503;PMS5003;18953;45.930;13.640;2023-03-01T00:28:54;32;26;
32503;PMS5003;18953;45.930;13.640;2023-03-01T00:34:11;25;23;
32503;PMS5003;18953;45.930;13.640;2023-03-01T00:39:27;29;25;
32503;PMS5003;18953;45.930;13.640;2023-03-01T00:44:43;32;28;
32503;PMS5003;18953;45.930;13.640;2023-03-01T00:50:00;38;32;
32503;PMS5003;18953;45.930;13.640;2023-03-01T00:55:17;31;28;
32503;PMS5003;18953;45.930;13.640;2023-03-01T01:00:33;27;24;
32503;PMS5003;18953;45.930;13.640;2023-03-01T01:05:50;31;27;
32503;PMS5003;18953;45.930;13.640;2023-03-01T01:11:08;28;25;
32503;PMS5003;18953;45.930;13.640;2023-03-01T01:16:24;29;28;
32503;PMS5003;18953;45.930;13.640;2023-03-01T01:21:40;31;28;
32503;PMS5003;18953;45.930;13.640;2023-03-01T01:26:57;26;22;
32503;PMS5003;18953;45.930;13.640;2023-03-01T01:32:13;40;36;
32503;PMS5003;18953;45.930;13.640;2023-03-01T01:37:29;36;29;
32503;PMS5003;18953;45.930;13.640;2023-03-01T01:42:46;30;28;
32503;PMS5003;18953;45.930;13.640;2023-03-01T01:48:03;33;28;
32503;PMS5003;18953;45.930;13.640;2023-03-01T01:53:19;33;28;
32503;PMS5003;18953;45.930;13.640;2023-03-01T01:58:36;29;26;
32503;PMS5003;18953;45.930;13.640;2023-03-01T02:03:53;36;30;
32503;PMS5003;18953;45.930;13.640;2023-03-01T02:09:11;29;23;
32503;PMS5003;18953;45.930;13.640;2023-03-01T02:14:25;25;22;
32503;PMS5003;18953;45.930;13.640;2023-03-01T02:19:45;29;24;
32503;PMS5003;18953;45.930;13.640;2023-03-01T02:25:02;30;25;
32503;PMS5003;18953;45.930;13.640;2023-03-01T02:30:15;26;22;
32503;PMS5003;18953;45.930;13.640;2023-03-01T02:35:31;28;26;
32503;PMS5003;18953;45.930;13.640;2023-03-01T02:40:48;37;34;
32503;PMS5003;18953;45.930;13.640;2023-03-01T02:46:05;27;23;
32503;PMS5003;18953;45.930;13.640;2023-03-01T02:51:25;26;23;
32503;PMS5003;18953;45.930;13.640;2023-03-01T02:56:37;24;21;
32503;PMS5003;18953;45.930;13.640;2023-03-01T03:01:54;22;20;
32503;PMS5003;18953;45.930;13.640;2023-03-01T03:07:10;33;25;
32503;PMS5003;18953;45.930;13.640;2023-03-01T03:12:26;25;22;
32503;PMS5003;18953;45.930;13.640;2023-03-01T03:17:43;25;19;
32503;PMS5003;18953;45.930;13.640;2023-03-01T03:22:59;28;21;
32503;PMS5003;18953;45.930;13.640;2023-03-01T03:28:16;22;20;
32503;PMS5003;18953;45.930;13.640;2023-03-01T03:33:32;28;22;
32503;PMS5003;18953;45.930;13.640;2023-03-01T03:38:48;23;21;
32503;PMS5003;18953;45.930;13.640;2023-03-01T03:44:05;26;24;
32503;PMS5003;18953;45.930;13.640;2023-03-01T03:49:22;34;23;
32503;PMS5003;18953;45.930;13.640;2023-03-01T03:54:39;25;21;
32503;PMS5003;18953;45.930;13.640;2023-03-01T03:59:55;25;20;
32503;PMS5003;18953;45.930;13.640;2023-03-01T04:05:13;21;20;
32503;PMS5003;18953;45.930;13.640;2023-03-01T04:10:28;24;19;
32503;PMS5003;18953;45.930;13.640;2023-03-01T17:23:16;8;7;
32503;PMS5003;18953;45.930;13.640;2023-03-01T17:28:34;7;6;
32503;PMS5003;18953;45.930;13.640;2023-03-01T17:39:15;8;8;
32503;PMS5003;18953;45.930;13.640;2023-03-01T17:44:31;5;5;
32503;PMS5003;18953;45.930;13.640;2023-03-01T17:49:48;6;5;
32503;PMS5003;18953;45.930;13.640;2023-03-01T17:55:04;8;8;
32503;PMS5003;18953;45.930;13.640;2023-03-01T18:00:20;6;6;
32503;PMS5003;18953;45.930;13.640;2023-03-01T18:05:37;5;5;
32503;PMS5003;18953;45.930;13.640;2023-03-01T18:10:56;3;3;
32503;PMS5003;18953;45.930;13.640;2023-03-01T18:16:10;5;5;
32503;PMS5003;18953;45.930;13.640;2023-03-01T18:21:26;4;4;
32503;PMS5003;18953;45.930;13.640;2023-03-01T18:26:43;5;5;
32503;PMS5003;18953;45.930;13.640;2023-03-01T18:32:00;7;6;
32503;PMS5003;18953;45.930;13.640;2023-03-01T18:37:16;6;5;
32503;PMS5003;18953;45.930;13.640;2023-03-01T18:42:32;8;8;
32503;PMS5003;18953;45.930;13.640;2023-03-01T18:47:49;5;5;
32503;PMS5003;18953;45.930;13.640;2023-03-01T18:53:05;4;4;
32503;PMS5003;18953;45.930;13.640;2023-03-01T18:58:21;1;0;
32503;PMS5003;18953;45.930;13.640;2023-03-01T19:03:38;1;1;
32503;PMS5003;18953;45.930;13.640;2023-03-01T19:08:54;1;1;
32503;PMS5003;18953;45.930;13.640;2023-03-01T19:14:10;1;0;
32503;PMS5003;18953;45.930;13.640;2023-03-01T19:19:27;2;2;
32503;PMS5003;18953;45.930;13.640;2023-03-01T19:24:43;6;6;
32503;PMS5003;18953;45.930;13.640;2023-03-01T19:30:00;5;5;
32503;PMS5003;18953;45.930;13.640;2023-03-01T19:35:16;14;13;
32503;PMS5003;18953;45.930;13.640;2023-03-01T19:40:34;9;8;
32503;PMS5003;18953;45.930;13.640;2023-03-01T19:45:49;10;9;
32503;PMS5003;18953;45.930;13.640;2023-03-01T19:51:05;11;9;
32503;PMS5003;18953;45.930;13.640;2023-03-01T19:56:21;9;9;
32503;PMS5003;18953;45.930;13.640;2023-03-01T20:01:38;10;7;
32503;PMS5003;18953;45.930;13.640;2023-03-01T20:06:54;12;11;
32503;PMS5003;18953;45.930;13.640;2023-03-01T20:12:11;12;11;
32503;PMS5003;18953;45.930;13.640;2023-03-01T20:17:27;4;4;
32503;PMS5003;18953;45.930;13.640;2023-03-01T20:22:43;7;6;
32503;PMS5003;18953;45.930;13.640;2023-03-01T20:28:00;2;2;
32503;PMS5003;18953;45.930;13.640;2023-03-01T20:33:16;3;3;
32503;PMS5003;18953;45.930;13.640;2023-03-01T20:38:33;6;6;
32503;PMS5003;18953;45.930;13.640;2023-03-01T20:43:49;1;1;
32503;PMS5003;18953;45.930;13.640;2023-03-01T20:49:05;2;2;
32503;PMS5003;18953;45.930;13.640;2023-03-01T20:54:22;2;2;
32503;PMS5003;18953;45.930;13.640;2023-03-01T20:59:38;6;6;
32503;PMS5003;18953;45.930;13.640;2023-03-01T21:04:54;7;7;
32503;PMS5003;18953;45.930;13.640;2023-03-01T21:10:11;5;4;
32503;PMS5003;18953;45.930;13.640;2023-03-01T21:15:27;8;8;
32503;PMS5003;18953;45.930;13.640;2023-03-01T21:20:43;14;11;
32503;PMS5003;18953;45.930;13.640;2023-03-01T21:26:01;13;12;
32503;PMS5003;18953;45.930;13.640;2023-03-01T21:31:17;4;4;
32503;PMS5003;18953;45.930;13.640;2023-03-01T21:36:33;7;5;
32503;PMS5003;18953;45.930;13.640;2023-03-01T21:41:49;3;3;
32503;PMS5003;18953;45.930;13.640;2023-03-01T21:47:05;13;11;
32503;PMS5003;18953;45.930;13.640;2023-03-01T21:52:22;7;6;
32503;PMS5003;18953;45.930;13.640;2023-03-01T21:57:38;7;6;
32503;PMS5003;18953;45.930;13.640;2023-03-01T22:02:54;1;1;
32503;PMS5003;18953;45.930;13.640;2023-03-01T22:08:11;3;3;
32503;PMS5003;18953;45.930;13.640;2023-03-01T22:13:27;6;4;
32503;PMS5003;18953;45.930;13.640;2023-03-01T22:18:44;2;2;
32503;PMS5003;18953;45.930;13.640;2023-03-01T22:24:01;3;2;
32503;PMS5003;18953;45.930;13.640;2023-03-01T22:29:19;2;2;
32503;PMS5003;18953;45.930;13.640;2023-03-01T22:34:33;1;1;
32503;PMS5003;18953;45.930;13.640;2023-03-01T22:39:50;2;1;
32503;PMS5003;18953;45.930;13.640;2023-03-01T22:45:06;2;2;
32503;PMS5003;18953;45.930;13.640;2023-03-01T22:50:23;2;2;
32503;PMS5003;18953;45.930;13.640;2023-03-01T22:55:39;29;23;
32503;PMS5003;18953;45.930;13.640;2023-03-01T23:00:55;3;3;
32503;PMS5003;18953;45.930;13.640;2023-03-01T23:06:13;4;4;
32503;PMS5003;18953;45.930;13.640;2023-03-01T23:11:28;6;5;
32503;PMS5003;18953;45.930;13.640;2023-03-01T23:16:44;2;2;
32503;PMS5003;18953;45.930;13.640;2023-03-01T23:22:01;6;5;
32503;PMS5003;18953;45.930;13.640;2023-03-01T23:27:17;4;3;
32503;PMS5003;18953;45.930;13.640;2023-03-01T23:32:33;2;2;
32503;PMS5003;18953;45.930;13.640;2023-03-01T23:37:50;2;2;
32503;PMS5003;18953;45.930;13.640;2023-03-01T23:43:06;5;5;
32503;PMS5003;18953;45.930;13.640;2023-03-01T23:48:23;3;2;
32503;PMS5003;18953;45.930;13.640;2023-03-01T23:53:40;5;5;
32503;PMS5003;18953;45.930;13.640;2023-03-01T23:58:56;6;6;
